Time;durP1;ratioP1;P1;durP2;ratioP2;P2;SDS_P1;SDS_P2;PMS_P1;PMS_P2;Temp;Humidity;BMP_temperature;BMP_pressure;BME280_temperature;BME280_humidity;BME280_pressure;Samples;Min_cycle;Max_cycle;Signal;HPM_P1;HPM_P2
2021/07/04 00:00:38;;;;;;;11.20;10.10;;;;;;;;;;5133533;27;20214;-66
2021/07/04 00:03:07;;;;;;;11.25;10.15;;;;;;;;;;5137891;27;20270;-66
2021/07/04 00:05:36;;;;;;;12.05;10.90;;;;;;;;;;5137637;27;20536;-68
2021/07/04 00:08:05;;;;;;;11.50;10.40;;;;;;;;;;5137660;27;20294;-67
2021/07/04 00:10:36;;;;;;;11.48;10.27;;;;;;;;;;5137603;27;20218;-65
2021/07/04 00:13:04;;;;;;;11.30;10.30;;;;;;;;;;5137423;27;20227;-67
2021/07/04 00:15:34;;;;;;;11.95;10.75;;;;;;;;;;5137280;27;20325;-67
2021/07/04 00:18:04;;;;;;;11.70;10.60;;;;;;;;;;5137550;27;20274;-66
2021/07/04 00:20:32;;;;;;;12.30;10.80;;;;;;;;;;5137108;27;20674;-67
2021/07/04 00:23:00;;;;;;;11.30;10.20;;;;;;;;;;5137609;27;20195;-67
2021/07/04 00:25:29;;;;;;;11.38;10.27;;;;;;;;;;5137293;27;20205;-66
2021/07/04 00:27:57;;;;;;;10.77;9.85;;;;;;;;;;5137123;27;20293;-66
2021/07/04 00:30:26;;;;;;;11.52;10.45;;;;;;;;;;5136890;27;20668;-65
2021/07/04 00:32:54;;;;;;;11.65;10.55;;;;;;;;;;5137034;27;20209;-67
2021/07/04 00:35:25;;;;;;;11.35;10.25;;;;;;;;;;5137221;27;20199;-66
2021/07/04 00:37:53;;;;;;;11.70;10.50;;;;;;;;;;5137012;27;20189;-67
2021/07/04 00:40:22;;;;;;;12.02;10.93;;;;;;;;;;5136995;27;20307;-66
2021/07/04 00:42:51;;;;;;;12.02;10.98;;;;;;;;;;5136326;27;20632;-65
2021/07/04 00:45:20;;;;;;;12.90;11.70;;;;;;;;;;5116340;28;20207;-65
2021/07/04 00:47:49;;;;;;;12.90;11.60;;;;;;;;;;5116272;28;20294;-66
2021/07/04 00:50:18;;;;;;;13.50;12.30;;;;;;;;;;5127342;27;20244;-66
2021/07/04 00:52:48;;;;;;;12.88;11.68;;;;;;;;;;5136482;27;20198;-66
2021/07/04 00:55:17;;;;;;;13.30;12.00;;;;;;;;;;5136732;27;20205;-66
2021/07/04 00:57:45;;;;;;;13.55;12.25;;;;;;;;;;5136725;27;20202;-66
2021/07/04 01:00:15;;;;;;;12.65;11.45;;;;;;;;;;5136346;27;20332;-66
2021/07/04 01:02:44;;;;;;;12.88;11.65;;;;;;;;;;5136359;27;20733;-65
2021/07/04 01:05:13;;;;;;;12.85;11.52;;;;;;;;;;5136171;27;20576;-66
2021/07/04 01:07:42;;;;;;;13.90;12.57;;;;;;;;;;5136199;27;20680;-65
2021/07/04 01:10:13;;;;;;;12.32;11.13;;;;;;;;;;5136321;27;20220;-66
2021/07/04 01:12:43;;;;;;;13.35;12.15;;;;;;;;;;5136075;27;20298;-66
2021/07/04 01:15:13;;;;;;;13.50;12.20;;;;;;;;;;5136361;27;20289;-69
2021/07/04 01:17:41;;;;;;;13.50;12.13;;;;;;;;;;5136021;27;20290;-66
2021/07/04 01:20:10;;;;;;;13.45;12.25;;;;;;;;;;5136235;27;20199;-66
2021/07/04 01:22:39;;;;;;;14.20;12.82;;;;;;;;;;5135857;27;20566;-66
2021/07/04 01:25:11;;;;;;;12.63;11.43;;;;;;;;;;5136123;27;20199;-68
2021/07/04 01:27:39;;;;;;;13.55;12.15;;;;;;;;;;5136112;27;20183;-66
2021/07/04 01:30:09;;;;;;;14.07;11.55;;;;;;;;;;5135725;27;20519;-66
2021/07/04 01:32:37;;;;;;;13.45;12.05;;;;;;;;;;5135972;27;20222;-65
2021/07/04 01:35:07;;;;;;;12.38;11.07;;;;;;;;;;5135947;27;20229;-66
2021/07/04 01:37:38;;;;;;;12.75;11.55;;;;;;;;;;5136094;27;20183;-66
2021/07/04 01:40:07;;;;;;;12.75;11.55;;;;;;;;;;5135601;27;20580;-66
2021/07/04 01:42:37;;;;;;;12.18;10.98;;;;;;;;;;5135350;27;20222;-66
2021/07/04 01:45:06;;;;;;;11.80;10.60;;;;;;;;;;5135742;27;20195;-66
2021/07/04 01:47:36;;;;;;;11.70;10.60;;;;;;;;;;5135785;27;20194;-66
2021/07/04 01:50:05;;;;;;;12.07;10.77;;;;;;;;;;5137361;27;20590;-68
2021/07/04 01:52:33;;;;;;;11.18;10.07;;;;;;;;;;5139381;27;20194;-66
2021/07/04 01:55:01;;;;;;;11.20;10.13;;;;;;;;;;5137574;27;20293;-66
2021/07/04 01:57:29;;;;;;;11.63;10.57;;;;;;;;;;5135693;27;20289;-65
2021/07/04 02:00:02;;;;;;;11.25;10.02;;;;;;;;;;5135966;27;20200;-65
2021/07/04 02:02:30;;;;;;;11.77;10.68;;;;;;;;;;5135438;27;20617;-66
2021/07/04 02:04:59;;;;;;;10.73;9.63;;;;;;;;;;5135089;27;20296;-66
2021/07/04 02:07:27;;;;;;;10.80;9.80;;;;;;;;;;5135234;27;20199;-66
2021/07/04 02:09:55;;;;;;;11.02;9.88;;;;;;;;;;5134943;27;20301;-65
2021/07/04 02:12:23;;;;;;;9.98;9.07;;;;;;;;;;5134933;27;20286;-66
2021/07/04 02:14:51;;;;;;;10.25;9.30;;;;;;;;;;5134722;27;20195;-66
2021/07/04 02:17:21;;;;;;;10.13;9.10;;;;;;;;;;5135031;27;20198;-65
2021/07/04 02:19:50;;;;;;;10.60;9.60;;;;;;;;;;5135193;27;20714;-66
2021/07/04 02:22:18;;;;;;;10.23;9.23;;;;;;;;;;5134970;27;20210;-67
2021/07/04 02:24:47;;;;;;;9.82;8.93;;;;;;;;;;5134110;27;20729;-67
2021/07/04 02:27:15;;;;;;;9.88;9.00;;;;;;;;;;5134653;27;20311;-66
2021/07/04 02:29:43;;;;;;;10.73;9.27;;;;;;;;;;5134742;27;20285;-65
2021/07/04 02:32:11;;;;;;;10.65;9.60;;;;;;;;;;5134740;27;20202;-66
2021/07/04 02:34:40;;;;;;;10.20;9.23;;;;;;;;;;5134797;27;20205;-66
2021/07/04 02:37:09;;;;;;;10.10;9.20;;;;;;;;;;5134703;27;20199;-67
2021/07/04 02:39:37;;;;;;;10.35;9.38;;;;;;;;;;5134705;27;20211;-66
2021/07/04 02:42:05;;;;;;;10.35;9.35;;;;;;;;;;5134416;27;20214;-65
2021/07/04 02:44:33;;;;;;;10.77;9.65;;;;;;;;;;5134567;27;20285;-66
2021/07/04 02:47:01;;;;;;;10.15;9.25;;;;;;;;;;5134592;27;20662;-66
2021/07/04 02:49:29;;;;;;;9.80;8.90;;;;;;;;;;5134080;27;20317;-67
2021/07/04 02:51:59;;;;;;;10.23;9.32;;;;;;;;;;5134172;27;20179;-67
2021/07/04 02:54:27;;;;;;;10.68;9.70;;;;;;;;;;5134449;27;20199;-66
2021/07/04 02:56:55;;;;;;;10.05;9.15;;;;;;;;;;5134227;27;20209;-66
2021/07/04 02:59:23;;;;;;;11.63;9.82;;;;;;;;;;5134354;27;20199;-67
2021/07/04 03:01:52;;;;;;;10.93;9.77;;;;;;;;;;5134095;27;20223;-66
2021/07/04 03:04:20;;;;;;;10.85;9.85;;;;;;;;;;5134235;27;20198;-66
2021/07/04 03:06:48;;;;;;;10.80;9.77;;;;;;;;;;5134274;27;20293;-65
2021/07/04 03:09:18;;;;;;;11.43;10.10;;;;;;;;;;5134144;27;20305;-66
2021/07/04 03:11:46;;;;;;;10.60;9.63;;;;;;;;;;5134008;27;20197;-66
2021/07/04 03:14:14;;;;;;;11.70;10.50;;;;;;;;;;5134174;27;20536;-66
2021/07/04 03:16:42;;;;;;;11.57;10.48;;;;;;;;;;5134019;27;20198;-66
2021/07/04 03:19:10;;;;;;;12.77;10.10;;;;;;;;;;5134068;27;20194;-65
2021/07/04 03:21:39;;;;;;;11.18;10.10;;;;;;;;;;5133699;27;20701;-66
2021/07/04 03:24:07;;;;;;;11.07;9.98;;;;;;;;;;5133939;27;20293;-66
2021/07/04 03:26:36;;;;;;;10.45;9.50;;;;;;;;;;5133632;27;20662;-66
2021/07/04 03:29:04;;;;;;;10.10;9.10;;;;;;;;;;5133742;27;20194;-66
2021/07/04 03:31:33;;;;;;;10.90;9.32;;;;;;;;;;5133536;27;20301;-65
2021/07/04 03:34:01;;;;;;;10.27;9.25;;;;;;;;;;5133845;27;20230;-65
2021/07/04 03:36:29;;;;;;;11.50;9.23;;;;;;;;;;5132988;27;20205;-65
2021/07/04 03:38:57;;;;;;;10.93;9.88;;;;;;;;;;5133805;28;20213;-67
2021/07/04 03:41:26;;;;;;;9.88;8.80;;;;;;;;;;5134051;28;20201;-65
2021/07/04 03:43:59;;;;;;;9.82;9.02;;;;;;;;;;5133575;28;20313;-66
2021/07/04 03:46:27;;;;;;;8.90;8.00;;;;;;;;;;5133256;28;20690;-65
2021/07/04 03:48:55;;;;;;;10.50;9.50;;;;;;;;;;5133701;28;20199;-66
2021/07/04 03:51:24;;;;;;;10.77;9.77;;;;;;;;;;5133236;28;20222;-66
2021/07/04 03:53:52;;;;;;;10.80;9.73;;;;;;;;;;5133368;28;20635;-65
2021/07/04 03:56:21;;;;;;;9.98;8.98;;;;;;;;;;5133332;28;20643;-67
2021/07/04 03:58:49;;;;;;;10.65;9.40;;;;;;;;;;5133366;28;20301;-66
2021/07/04 04:01:19;;;;;;;10.48;9.40;;;;;;;;;;5133166;28;20205;-66
2021/07/04 04:03:48;;;;;;;10.68;9.30;;;;;;;;;;5133533;28;20237;-66
2021/07/04 04:06:16;;;;;;;9.35;8.55;;;;;;;;;;5133546;28;20619;-66
2021/07/04 04:08:45;;;;;;;9.57;8.65;;;;;;;;;;5133522;28;20199;-67
2021/07/04 04:11:14;;;;;;;10.50;9.23;;;;;;;;;;5133143;28;20205;-65
2021/07/04 04:13:42;;;;;;;10.48;9.38;;;;;;;;;;5133604;28;20267;-66
2021/07/04 04:16:10;;;;;;;8.90;8.10;;;;;;;;;;5133007;28;20285;-65
2021/07/04 04:18:40;;;;;;;9.15;8.32;;;;;;;;;;5133567;28;20225;-66
2021/07/04 04:21:09;;;;;;;10.32;9.10;;;;;;;;;;5133084;28;20234;-66
2021/07/04 04:23:37;;;;;;;9.20;8.38;;;;;;;;;;5133321;28;20218;-66
2021/07/04 04:26:05;;;;;;;9.88;8.88;;;;;;;;;;5133276;28;20221;-66
2021/07/04 04:28:33;;;;;;;9.32;8.30;;;;;;;;;;5133237;28;20285;-66
2021/07/04 04:31:02;;;;;;;9.27;8.40;;;;;;;;;;5133139;28;20198;-66
2021/07/04 04:33:30;;;;;;;9.20;8.27;;;;;;;;;;5133269;28;20198;-66
2021/07/04 04:35:59;;;;;;;8.73;7.90;;;;;;;;;;5133246;28;20213;-66
2021/07/04 04:38:27;;;;;;;8.50;7.65;;;;;;;;;;5133250;28;20561;-67
2021/07/04 04:40:56;;;;;;;8.02;7.22;;;;;;;;;;5133049;28;20233;-67
2021/07/04 04:43:24;;;;;;;8.60;7.80;;;;;;;;;;5132785;28;20215;-66
2021/07/04 04:45:52;;;;;;;8.60;7.70;;;;;;;;;;5133035;28;20199;-65
2021/07/04 04:48:20;;;;;;;8.60;7.80;;;;;;;;;;5135562;27;20203;-66
2021/07/04 04:50:48;;;;;;;8.38;7.55;;;;;;;;;;5136537;27;20236;-66
2021/07/04 04:53:18;;;;;;;7.85;7.15;;;;;;;;;;5136779;27;20286;-66
2021/07/04 04:55:46;;;;;;;7.32;6.72;;;;;;;;;;5136743;27;20293;-65
2021/07/04 04:58:14;;;;;;;7.45;6.82;;;;;;;;;;5136655;27;20262;-67
2021/07/04 05:00:42;;;;;;;7.22;6.63;;;;;;;;;;5136637;27;20199;-67
2021/07/04 05:03:11;;;;;;;7.22;6.53;;;;;;;;;;5136679;27;20242;-66
2021/07/04 05:05:39;;;;;;;6.93;6.18;;;;;;;;;;5136719;27;20199;-66
2021/07/04 05:08:07;;;;;;;6.25;5.75;;;;;;;;;;5136650;27;20226;-66
2021/07/04 05:10:37;;;;;;;6.95;6.30;;;;;;;;;;5136613;27;20214;-66
2021/07/04 05:13:05;;;;;;;7.20;6.50;;;;;;;;;;5136408;27;20186;-66
2021/07/04 05:15:33;;;;;;;6.72;6.13;;;;;;;;;;5136232;27;20209;-67
2021/07/04 05:18:05;;;;;;;6.60;6.10;;;;;;;;;;5136406;27;20643;-67
2021/07/04 05:20:33;;;;;;;7.38;6.78;;;;;;;;;;5136357;27;20278;-66
2021/07/04 05:23:02;;;;;;;6.57;5.97;;;;;;;;;;5135574;27;20253;-65
2021/07/04 05:25:30;;;;;;;6.20;5.70;;;;;;;;;;5135844;27;20729;-66
2021/07/04 05:27:59;;;;;;;6.32;5.78;;;;;;;;;;5136056;27;20199;-66
2021/07/04 05:30:27;;;;;;;6.30;5.70;;;;;;;;;;5136004;27;20293;-67
2021/07/04 05:32:56;;;;;;;7.00;6.40;;;;;;;;;;5136049;27;20195;-67
2021/07/04 05:35:24;;;;;;;6.80;6.13;;;;;;;;;;5136081;27;20281;-67
2021/07/04 05:37:52;;;;;;;5.68;5.28;;;;;;;;;;5135884;27;20200;-66
2021/07/04 05:40:20;;;;;;;6.80;6.20;;;;;;;;;;5135947;27;20205;-66
2021/07/04 05:42:53;;;;;;;6.95;6.35;;;;;;;;;;5135135;27;20696;-67
2021/07/04 05:45:23;;;;;;;6.93;6.30;;;;;;;;;;5135653;27;20204;-65
2021/07/04 05:47:52;;;;;;;6.30;5.80;;;;;;;;;;5135721;27;20541;-66
2021/07/04 05:50:20;;;;;;;6.35;5.85;;;;;;;;;;5135367;27;20240;-67
2021/07/04 05:52:49;;;;;;;7.20;6.60;;;;;;;;;;5135385;27;20669;-66
2021/07/04 05:55:17;;;;;;;7.40;6.30;;;;;;;;;;5135632;27;20598;-65
2021/07/04 05:57:45;;;;;;;6.78;6.20;;;;;;;;;;5135468;27;20294;-66
2021/07/04 06:00:14;;;;;;;7.00;6.40;;;;;;;;;;5134043;27;20546;-67
2021/07/04 06:02:43;;;;;;;6.20;5.70;;;;;;;;;;5135697;27;20203;-68
2021/07/04 06:05:13;;;;;;;6.30;5.80;;;;;;;;;;5135690;27;20183;-68
2021/07/04 06:07:42;;;;;;;6.07;5.47;;;;;;;;;;5137602;27;20201;-66
2021/07/04 06:10:11;;;;;;;6.43;5.82;;;;;;;;;;5136965;27;20220;-66
2021/07/04 06:12:39;;;;;;;6.30;5.80;;;;;;;;;;5135194;27;20198;-66
2021/07/04 06:15:09;;;;;;;6.25;5.65;;;;;;;;;;5134806;27;20690;-67
2021/07/04 06:17:37;;;;;;;6.13;5.40;;;;;;;;;;5135110;27;20194;-66
2021/07/04 06:20:08;;;;;;;6.10;5.60;;;;;;;;;;5135045;27;20294;-66
2021/07/04 06:22:36;;;;;;;6.13;5.53;;;;;;;;;;5134904;27;20183;-67
2021/07/04 06:25:06;;;;;;;6.20;5.60;;;;;;;;;;5135017;27;20215;-67
2021/07/04 06:27:34;;;;;;;6.00;5.40;;;;;;;;;;5134633;27;20194;-66
2021/07/04 06:30:02;;;;;;;5.78;5.28;;;;;;;;;;5134427;27;20715;-67
2021/07/04 06:32:31;;;;;;;5.65;5.10;;;;;;;;;;5134443;27;20289;-66
2021/07/04 06:34:59;;;;;;;6.10;5.25;;;;;;;;;;5134795;27;20194;-66
2021/07/04 06:37:28;;;;;;;5.13;4.72;;;;;;;;;;5134922;27;20297;-67
2021/07/04 06:39:56;;;;;;;6.32;5.40;;;;;;;;;;5134650;27;20205;-66
2021/07/04 06:42:25;;;;;;;5.82;5.25;;;;;;;;;;5134452;27;20313;-66
2021/07/04 06:44:53;;;;;;;6.25;5.65;;;;;;;;;;5134239;27;20241;-66
2021/07/04 06:47:21;;;;;;;6.20;5.60;;;;;;;;;;5134282;27;20864;-68
2021/07/04 06:49:50;;;;;;;5.63;5.13;;;;;;;;;;5134361;27;20226;-66
2021/07/04 06:52:18;;;;;;;5.93;5.43;;;;;;;;;;5134731;27;20201;-67
2021/07/04 06:54:47;;;;;;;5.30;4.90;;;;;;;;;;5134145;27;20203;-66
2021/07/04 06:57:28;;;;;;;5.00;4.60;;;;;;;;;;5134172;27;20212;-67
2021/07/04 06:59:57;;;;;;;4.72;4.32;;;;;;;;;;5134113;27;20235;-65
2021/07/04 07:02:25;;;;;;;5.15;4.75;;;;;;;;;;5134351;27;20216;-66
2021/07/04 07:04:54;;;;;;;5.55;5.05;;;;;;;;;;5134250;27;20222;-67
2021/07/04 07:07:22;;;;;;;5.25;4.85;;;;;;;;;;5133916;27;20296;-65
2021/07/04 07:09:52;;;;;;;5.32;4.82;;;;;;;;;;5134023;27;20292;-66
2021/07/04 07:12:20;;;;;;;5.03;4.50;;;;;;;;;;5133972;27;20305;-66
2021/07/04 07:14:48;;;;;;;5.68;5.05;;;;;;;;;;5134005;27;20688;-66
2021/07/04 07:17:17;;;;;;;4.93;4.53;;;;;;;;;;5134018;27;20593;-66
2021/07/04 07:19:45;;;;;;;4.80;4.40;;;;;;;;;;5133807;27;20208;-67
2021/07/04 07:22:14;;;;;;;5.72;4.60;;;;;;;;;;5133954;27;20629;-65
2021/07/04 07:24:42;;;;;;;5.05;4.65;;;;;;;;;;5133859;27;20226;-65
2021/07/04 07:27:11;;;;;;;4.90;4.50;;;;;;;;;;5133815;27;20198;-66
2021/07/04 07:29:39;;;;;;;5.13;4.70;;;;;;;;;;5133660;27;20290;-67
2021/07/04 07:32:08;;;;;;;5.00;4.60;;;;;;;;;;5133794;27;20199;-67
2021/07/04 07:34:36;;;;;;;5.22;4.82;;;;;;;;;;5133871;27;20281;-66
2021/07/04 07:37:05;;;;;;;5.53;5.03;;;;;;;;;;5133781;27;20223;-66
2021/07/04 07:39:33;;;;;;;4.82;4.35;;;;;;;;;;5133526;27;20195;-66
2021/07/04 07:42:02;;;;;;;4.93;4.53;;;;;;;;;;5133702;28;20229;-66
2021/07/04 07:44:31;;;;;;;5.53;5.03;;;;;;;;;;5133421;28;20762;-66
2021/07/04 07:46:59;;;;;;;5.25;4.78;;;;;;;;;;5133658;28;20289;-66
2021/07/04 07:49:28;;;;;;;5.20;4.70;;;;;;;;;;5133528;28;20230;-67
2021/07/04 07:51:56;;;;;;;5.50;5.00;;;;;;;;;;5133361;28;20245;-66
2021/07/04 07:54:24;;;;;;;5.30;4.90;;;;;;;;;;5133475;28;20201;-67
2021/07/04 07:56:52;;;;;;;5.15;4.75;;;;;;;;;;5133784;28;20205;-65
2021/07/04 07:59:20;;;;;;;6.70;4.80;;;;;;;;;;5133407;28;20222;-66
2021/07/04 08:01:50;;;;;;;5.10;4.70;;;;;;;;;;5133271;28;20202;-66
2021/07/04 08:04:18;;;;;;;5.32;4.93;;;;;;;;;;5133647;28;20265;-66
2021/07/04 08:06:46;;;;;;;5.15;4.65;;;;;;;;;;5133481;28;20209;-66
2021/07/04 08:09:14;;;;;;;4.88;4.47;;;;;;;;;;5133251;28;20237;-67
2021/07/04 08:11:43;;;;;;;5.28;4.88;;;;;;;;;;5133478;28;20282;-67
2021/07/04 08:14:11;;;;;;;5.18;4.78;;;;;;;;;;5133231;28;20297;-67
2021/07/04 08:16:40;;;;;;;4.97;4.57;;;;;;;;;;5133144;28;20262;-67
2021/07/04 08:19:10;;;;;;;5.32;4.78;;;;;;;;;;5133240;28;20203;-65
2021/07/04 08:21:38;;;;;;;5.18;4.40;;;;;;;;;;5133514;27;20198;-68
2021/07/04 08:24:07;;;;;;;5.05;4.50;;;;;;;;;;5137472;27;20202;-67
2021/07/04 08:26:35;;;;;;;5.20;4.50;;;;;;;;;;5137359;27;20201;-69
2021/07/04 08:29:03;;;;;;;6.10;4.28;;;;;;;;;;5137110;27;20303;-67
2021/07/04 08:31:31;;;;;;;4.93;4.47;;;;;;;;;;5136771;27;20577;-68
2021/07/04 08:34:00;;;;;;;6.47;5.15;;;;;;;;;;5136868;27;20198;-66
2021/07/04 08:36:32;;;;;;;5.45;4.95;;;;;;;;;;5137017;27;20289;-67
2021/07/04 08:39:01;;;;;;;4.60;4.20;;;;;;;;;;5137119;27;20273;-67
2021/07/04 08:41:29;;;;;;;4.20;3.90;;;;;;;;;;5137042;27;20195;-66
2021/07/04 08:43:57;;;;;;;5.32;4.13;;;;;;;;;;5136688;27;20285;-66
2021/07/04 08:46:25;;;;;;;4.25;3.95;;;;;;;;;;5136486;27;20218;-66
2021/07/04 08:48:53;;;;;;;4.55;4.13;;;;;;;;;;5136672;27;20544;-67
2021/07/04 08:51:22;;;;;;;4.45;4.03;;;;;;;;;;5136644;27;20238;-67
2021/07/04 08:53:51;;;;;;;4.57;4.20;;;;;;;;;;5136808;27;20282;-66
2021/07/04 08:56:19;;;;;;;4.60;4.20;;;;;;;;;;5136764;27;20318;-67
2021/07/04 08:58:48;;;;;;;4.60;4.20;;;;;;;;;;5136630;27;20648;-67
2021/07/04 09:01:29;;;;;;;5.05;4.25;;;;;;;;;;5136472;27;20271;-67
2021/07/04 09:04:08;;;;;;;4.78;4.28;;;;;;;;;;5136514;27;20285;-68
2021/07/04 09:06:37;;;;;;;4.97;4.57;;;;;;;;;;5136198;27;20213;-66
2021/07/04 09:09:17;;;;;;;5.70;4.43;;;;;;;;;;5136253;27;20249;-66
2021/07/04 09:11:51;;;;;;;4.95;4.40;;;;;;;;;;5136506;27;20606;-67
2021/07/04 09:14:25;;;;;;;4.45;4.10;;;;;;;;;;5135941;27;20202;-66
2021/07/04 09:16:54;;;;;;;5.43;4.93;;;;;;;;;;5136208;27;20528;-67
2021/07/04 09:19:22;;;;;;;5.57;4.28;;;;;;;;;;5136270;27;20202;-69
2021/07/04 09:22:01;;;;;;;5.10;4.63;;;;;;;;;;5136307;27;20195;-66
2021/07/04 09:24:31;;;;;;;4.63;4.22;;;;;;;;;;5136301;27;20179;-67
2021/07/04 09:27:00;;;;;;;4.50;4.00;;;;;;;;;;5135799;27;20254;-67
2021/07/04 09:29:48;;;;;;;5.10;4.60;;;;;;;;;;5135715;27;20241;-68
2021/07/04 09:32:18;;;;;;;5.35;4.38;;;;;;;;;;5136027;27;20282;-66
2021/07/04 09:35:00;;;;;;;4.70;4.30;;;;;;;;;;5136106;27;20206;-66
2021/07/04 09:37:33;;;;;;;4.88;4.22;;;;;;;;;;5135647;27;20730;-66
2021/07/04 09:40:15;;;;;;;4.70;4.30;;;;;;;;;;5135512;27;20631;-66
2021/07/04 09:42:53;;;;;;;5.22;4.72;;;;;;;;;;5135679;27;20270;-68
2021/07/04 09:45:22;;;;;;;4.97;4.53;;;;;;;;;;5115102;28;20222;-66
2021/07/04 09:47:54;;;;;;;4.75;4.32;;;;;;;;;;5115049;28;20195;-65
2021/07/04 09:50:23;;;;;;;5.38;4.88;;;;;;;;;;5114658;28;20231;-67
2021/07/04 09:53:02;;;;;;;4.43;4.13;;;;;;;;;;5115050;28;20199;-65
2021/07/04 09:55:32;;;;;;;4.90;4.50;;;;;;;;;;5114693;28;20195;-66
2021/07/04 09:58:01;;;;;;;4.72;4.32;;;;;;;;;;5114981;28;20199;-66
2021/07/04 10:00:30;;;;;;;5.18;4.70;;;;;;;;;;5114686;28;20718;-66
2021/07/04 10:03:09;;;;;;;5.22;4.82;;;;;;;;;;5114575;28;20850;-66
2021/07/04 10:05:38;;;;;;;5.07;4.55;;;;;;;;;;5114558;28;20213;-66
2021/07/04 10:08:22;;;;;;;4.82;4.43;;;;;;;;;;5114144;28;20281;-66
2021/07/04 10:10:53;;;;;;;5.15;4.65;;;;;;;;;;5114240;28;20646;-66
2021/07/04 10:13:21;;;;;;;4.93;4.53;;;;;;;;;;5114192;28;20180;-67
2021/07/04 10:15:49;;;;;;;5.70;5.20;;;;;;;;;;5114429;28;20195;-66
2021/07/04 10:18:18;;;;;;;5.63;5.05;;;;;;;;;;5114505;28;20290;-67
2021/07/04 10:20:47;;;;;;;5.93;5.30;;;;;;;;;;5114336;28;20199;-66
2021/07/04 10:23:16;;;;;;;5.70;5.20;;;;;;;;;;5114497;28;20199;-66
2021/07/04 10:25:44;;;;;;;5.78;5.32;;;;;;;;;;5114293;28;20310;-66
2021/07/04 10:28:14;;;;;;;6.45;5.05;;;;;;;;;;5114375;28;20584;-66
2021/07/04 10:30:43;;;;;;;9.60;8.75;;;;;;;;;;5114195;28;20188;-70
2021/07/04 10:33:15;;;;;;;5.97;5.50;;;;;;;;;;5114199;28;20217;-66
2021/07/04 10:36:03;;;;;;;5.68;5.25;;;;;;;;;;5114292;28;20203;-65
2021/07/04 10:38:42;;;;;;;5.15;4.75;;;;;;;;;;5114054;28;20604;-65
2021/07/04 10:41:11;;;;;;;5.75;5.18;;;;;;;;;;5113704;28;20655;-67
2021/07/04 10:44:00;;;;;;;5.30;4.90;;;;;;;;;;5121147;27;20199;-66
2021/07/04 10:46:49;;;;;;;5.82;5.22;;;;;;;;;;5133835;27;20253;-66
2021/07/04 10:49:18;;;;;;;5.60;5.20;;;;;;;;;;5134072;27;20718;-67
2021/07/04 10:51:56;;;;;;;5.57;5.07;;;;;;;;;;5134392;27;20643;-66
2021/07/04 10:54:43;;;;;;;5.40;5.00;;;;;;;;;;5134364;27;20198;-67
2021/07/04 10:57:12;;;;;;;5.85;5.35;;;;;;;;;;5133934;27;20201;-66
2021/07/04 10:59:51;;;;;;;5.53;5.03;;;;;;;;;;5133699;27;20199;-66
2021/07/04 11:02:38;;;;;;;5.30;4.90;;;;;;;;;;5134027;27;20645;-66
2021/07/04 11:05:07;;;;;;;4.88;4.45;;;;;;;;;;5134231;27;20202;-66
2021/07/04 11:07:53;;;;;;;5.20;4.80;;;;;;;;;;5134051;27;20214;-66
2021/07/04 11:10:23;;;;;;;5.20;4.80;;;;;;;;;;5133940;27;20225;-67
2021/07/04 11:12:53;;;;;;;5.85;5.35;;;;;;;;;;5133672;27;20655;-66
2021/07/04 11:15:29;;;;;;;5.00;4.60;;;;;;;;;;5133908;27;20205;-65
2021/07/04 11:18:08;;;;;;;5.80;5.40;;;;;;;;;;5133985;27;20218;-65
2021/07/04 11:20:51;;;;;;;5.05;4.60;;;;;;;;;;5134069;27;20358;-65
2021/07/04 11:23:23;;;;;;;5.35;4.85;;;;;;;;;;5130872;27;20289;-66
2021/07/04 11:25:53;;;;;;;5.10;4.60;;;;;;;;;;5130712;27;20197;-66
2021/07/04 11:28:22;;;;;;;5.53;5.03;;;;;;;;;;5133697;27;20214;-67
2021/07/04 11:30:53;;;;;;;5.80;5.30;;;;;;;;;;5133600;27;20195;-66
2021/07/04 11:33:24;;;;;;;5.45;4.75;;;;;;;;;;5133317;27;20627;-65
2021/07/04 11:35:53;;;;;;;5.13;4.72;;;;;;;;;;5133717;27;20285;-66
2021/07/04 11:38:22;;;;;;;5.10;4.65;;;;;;;;;;5133367;27;20293;-66
2021/07/04 11:40:51;;;;;;;5.68;5.18;;;;;;;;;;5132448;27;20560;-66
2021/07/04 11:43:20;;;;;;;5.40;4.90;;;;;;;;;;5133055;28;20202;-67
2021/07/04 11:45:49;;;;;;;5.40;4.93;;;;;;;;;;5133446;28;20568;-66
2021/07/04 11:48:19;;;;;;;5.50;4.93;;;;;;;;;;5133414;28;20198;-66
2021/07/04 11:50:51;;;;;;;6.70;5.90;;;;;;;;;;5132614;28;20325;-66
2021/07/04 11:53:19;;;;;;;5.68;5.18;;;;;;;;;;5133532;28;20293;-66
2021/07/04 11:56:01;;;;;;;5.70;5.20;;;;;;;;;;5133116;27;20201;-65
2021/07/04 11:58:30;;;;;;;5.65;5.15;;;;;;;;;;5136834;27;20189;-66
2021/07/04 12:00:58;;;;;;;5.13;4.72;;;;;;;;;;5137234;27;20224;-65
2021/07/04 12:03:28;;;;;;;7.22;5.55;;;;;;;;;;5137626;27;20237;-67
2021/07/04 12:06:06;;;;;;;5.40;4.90;;;;;;;;;;5137550;27;20297;-67
2021/07/04 12:08:53;;;;;;;5.95;5.38;;;;;;;;;;5126913;27;20197;-66
2021/07/04 12:11:21;;;;;;;5.75;5.25;;;;;;;;;;5116886;28;20199;-66
2021/07/04 12:13:49;;;;;;;6.13;5.63;;;;;;;;;;5116671;28;20199;-67
2021/07/04 12:16:17;;;;;;;5.82;5.32;;;;;;;;;;5116237;28;20210;-67
2021/07/04 12:18:47;;;;;;;6.13;5.60;;;;;;;;;;5116466;28;20826;-66
2021/07/04 12:21:15;;;;;;;5.60;5.20;;;;;;;;;;5116737;28;20290;-65
2021/07/04 12:23:51;;;;;;;5.50;5.07;;;;;;;;;;5116049;28;20294;-66
2021/07/04 12:26:19;;;;;;;5.95;5.40;;;;;;;;;;5116318;28;20659;-66
2021/07/04 12:28:48;;;;;;;5.80;5.30;;;;;;;;;;5116319;28;20685;-65
2021/07/04 12:31:17;;;;;;;5.70;5.13;;;;;;;;;;5116200;28;20637;-66
2021/07/04 12:33:46;;;;;;;5.80;5.25;;;;;;;;;;5116367;28;20256;-66
2021/07/04 12:36:15;;;;;;;6.25;5.75;;;;;;;;;;5116522;28;20242;-65
2021/07/04 12:38:46;;;;;;;5.95;5.32;;;;;;;;;;5115977;28;20294;-66
2021/07/04 12:41:15;;;;;;;5.18;4.78;;;;;;;;;;5116426;28;20277;-65
2021/07/04 12:43:44;;;;;;;5.47;5.00;;;;;;;;;;5123956;27;20237;-67
2021/07/04 12:46:15;;;;;;;6.57;5.97;;;;;;;;;;5136416;27;20205;-66
2021/07/04 12:48:45;;;;;;;5.88;5.38;;;;;;;;;;5136332;27;20199;-67
2021/07/04 12:51:14;;;;;;;5.45;5.03;;;;;;;;;;5135429;27;20231;-65
2021/07/04 12:53:44;;;;;;;5.53;5.03;;;;;;;;;;5135196;28;20286;-66
2021/07/04 12:56:19;;;;;;;5.00;4.60;;;;;;;;;;5135456;28;20195;-66
2021/07/04 12:58:52;;;;;;;5.72;5.20;;;;;;;;;;5135249;28;20593;-66
2021/07/04 13:01:22;;;;;;;5.53;5.03;;;;;;;;;;5135108;28;20179;-66
2021/07/04 13:03:55;;;;;;;5.53;5.13;;;;;;;;;;5134561;28;20351;-65
2021/07/04 13:06:47;;;;;;;5.35;4.90;;;;;;;;;;5134842;28;20658;-65
2021/07/04 13:09:18;;;;;;;5.65;5.22;;;;;;;;;;5109592;28;20700;-65
2021/07/04 13:11:57;;;;;;;4.97;4.57;;;;;;;;;;5135273;28;20183;-65
2021/07/04 13:14:33;;;;;;;4.82;4.43;;;;;;;;;;5135165;28;20182;-65
2021/07/04 13:17:01;;;;;;;4.97;4.57;;;;;;;;;;5134700;28;20218;-65
2021/07/04 13:19:30;;;;;;;5.40;4.90;;;;;;;;;;5134656;28;20195;-65
2021/07/04 13:21:58;;;;;;;5.68;5.18;;;;;;;;;;5134495;28;20289;-66
2021/07/04 13:24:29;;;;;;;5.75;4.95;;;;;;;;;;5134463;28;20293;-65
2021/07/04 13:26:58;;;;;;;4.90;4.50;;;;;;;;;;5134829;28;20294;-66
2021/07/04 13:29:27;;;;;;;5.57;5.10;;;;;;;;;;5134469;28;20730;-66
2021/07/04 13:32:14;;;;;;;5.60;4.80;;;;;;;;;;5134413;28;20194;-65
2021/07/04 13:34:43;;;;;;;5.38;4.97;;;;;;;;;;5134748;28;20183;-65
2021/07/04 13:37:13;;;;;;;5.45;5.05;;;;;;;;;;5134593;28;20191;-65
2021/07/04 13:39:59;;;;;;;5.57;5.18;;;;;;;;;;5134673;28;20205;-66
2021/07/04 13:42:28;;;;;;;5.13;4.72;;;;;;;;;;5134657;28;20183;-65
2021/07/04 13:44:56;;;;;;;6.00;5.53;;;;;;;;;;5133875;28;20827;-66
2021/07/04 13:47:25;;;;;;;5.90;5.40;;;;;;;;;;5134257;28;20210;-66
2021/07/04 13:49:53;;;;;;;5.05;4.55;;;;;;;;;;5096805;27;1061046;-66
2021/07/04 13:52:22;;;;;;;5.13;4.72;;;;;;;;;;5135174;27;20232;-65
2021/07/04 13:54:50;;;;;;;4.90;4.50;;;;;;;;;;5135148;27;20289;-66
2021/07/04 13:57:19;;;;;;;4.70;4.40;;;;;;;;;;5135274;27;20249;-67
2021/07/04 13:59:48;;;;;;;4.70;4.40;;;;;;;;;;5135191;27;20226;-66
2021/07/04 14:02:17;;;;;;;5.28;4.88;;;;;;;;;;5134797;27;20298;-66
2021/07/04 14:04:46;;;;;;;4.65;4.32;;;;;;;;;;5134959;27;20198;-65
2021/07/04 14:07:14;;;;;;;4.80;4.40;;;;;;;;;;5134988;27;20195;-66
2021/07/04 14:09:42;;;;;;;5.18;4.68;;;;;;;;;;5134979;27;20201;-65
2021/07/04 14:12:11;;;;;;;4.95;4.55;;;;;;;;;;5135093;27;20217;-65
2021/07/04 14:14:40;;;;;;;5.20;4.78;;;;;;;;;;5134955;27;20285;-66
2021/07/04 14:17:08;;;;;;;5.20;4.80;;;;;;;;;;5134458;27;20302;-65
2021/07/04 14:19:40;;;;;;;4.75;4.45;;;;;;;;;;5134096;27;20252;-66
2021/07/04 14:22:08;;;;;;;4.85;4.50;;;;;;;;;;5134908;27;20187;-66
2021/07/04 14:24:37;;;;;;;4.47;4.18;;;;;;;;;;5134394;27;20289;-66
2021/07/04 14:27:05;;;;;;;5.00;4.60;;;;;;;;;;5134717;27;20202;-66
2021/07/04 14:29:34;;;;;;;5.15;4.55;;;;;;;;;;5134414;27;20679;-66
2021/07/04 14:32:04;;;;;;;4.97;4.47;;;;;;;;;;5134656;27;20195;-66
2021/07/04 14:34:32;;;;;;;5.60;5.15;;;;;;;;;;5134343;27;20655;-66
2021/07/04 14:37:01;;;;;;;5.13;4.72;;;;;;;;;;5134567;27;20195;-66
2021/07/04 14:39:31;;;;;;;4.57;4.28;;;;;;;;;;5134384;27;20214;-66
2021/07/04 14:41:59;;;;;;;5.10;4.70;;;;;;;;;;5134428;27;20293;-66
2021/07/04 14:44:27;;;;;;;4.80;4.50;;;;;;;;;;5134284;27;20285;-66
2021/07/04 14:46:55;;;;;;;4.50;4.10;;;;;;;;;;5134143;27;20202;-65
2021/07/04 14:49:25;;;;;;;4.50;4.10;;;;;;;;;;5130991;27;20322;-65
2021/07/04 14:51:55;;;;;;;4.40;4.00;;;;;;;;;;5113921;28;20190;-66
2021/07/04 14:54:29;;;;;;;5.03;4.28;;;;;;;;;;5113455;28;20195;-66